Accueil
METAR-TAF:

METAR-TAF

Aéroports :

Aéroport international de Berne

Berne, Suisse

latitude: 46-55N, longitude: 007-30E, altitude: 505 m

Observation

Le bulletin a été fait il y a 19 minutes, à 20:50 UTC
Vent 2 kt de direction variable
Température 12°C
Humidité 67%
Pression 1018 hPa
Visibilité 10 km ou plus
pas de nuages en-dessous de 1500 mètres et pas de cumulonimbus.

METAR: LSZB 312050Z AUTO VRB02KT CAVOK 12/06 Q1018

Heure: 23:09 (21:09 UTC)

Prévision

Le bulletin a été fait il y a 6 heures et 44 minutes, à 14:25 UTC
Prévision valable du 31 à 15 UTC au 31 à 24 UTC
Vent 6 kt de nord/nord-est
Visibilité 10 km ou plus
Nuages épars à une hauteur de 5500 ft

TAF: LSZB 311425Z 3115/3124 03006KT 9999 SCT055

Observations et prévisions météorologiques de plus de 4000 aéroports (messages METAR et TAF).

Les stations disponibles sont représentées par des disques jaunes et rouges sur la carte.

Passer la souris dessus pour voir le nom de la station.

Cliquer dessus pour voir les observations et prévisions météorologiques.

Pour changer de carte: cliquez sur les boutons verts avec une croix noire pour zoomer, sur le bouton vert avec un tiret pour effectuer un zoom arrière, ou sur les flèches vertes pour les cartes adjacentes.


METAR-TAF: